Time;durP1;ratioP1;P1;durP2;ratioP2;P2;SDS_P1;SDS_P2;PMS_P1;PMS_P2;Temp;Humidity;BMP_temperature;BMP_pressure;BME280_temperature;BME280_humidity;BME280_pressure;Samples;Min_cycle;Max_cycle;Signal;HPM_P1;HPM_P2
2022/11/03 00:01:52;;;;;;;22.50;3.90;;;;;;;11.21;85.13;101394.22;5089442;28;20146;-67
2022/11/03 00:04:19;;;;;;;8.45;2.53;;;;;;;11.19;85.13;101391.75;5091051;28;20039;-67
2022/11/03 00:06:47;;;;;;;8.52;2.97;;;;;;;11.19;85.11;101388.28;5092477;28;20028;-67
2022/11/03 00:09:14;;;;;;;20.25;3.38;;;;;;;11.13;85.56;101384.50;5092838;28;20055;-67
2022/11/03 00:11:42;;;;;;;10.25;3.78;;;;;;;11.14;85.27;101388.00;5092538;28;20032;-67
2022/11/03 00:14:10;;;;;;;10.45;3.75;;;;;;;11.15;85.41;101374.44;5092943;28;20036;-67
2022/11/03 00:16:37;;;;;;;10.15;2.30;;;;;;;11.16;84.98;101377.94;5092872;28;20426;-67
2022/11/03 00:19:03;;;;;;;10.82;2.30;;;;;;;11.16;85.13;101377.94;5092856;28;20102;-67
2022/11/03 00:21:29;;;;;;;16.10;2.28;;;;;;;11.16;84.79;101378.78;5092803;28;20031;-67
2022/11/03 00:23:54;;;;;;;12.23;2.00;;;;;;;11.18;84.97;101365.25;5092609;28;20028;-67
2022/11/03 00:26:26;;;;;;;12.88;3.05;;;;;;;11.21;84.67;101375.53;5091924;28;20075;-67
2022/11/03 00:28:53;;;;;;;11.48;2.20;;;;;;;11.14;84.70;101355.97;5092132;28;20030;-67
2022/11/03 00:31:23;;;;;;;6.88;2.28;;;;;;;11.21;84.94;101369.38;5092513;28;20038;-67
2022/11/03 00:33:49;;;;;;;5.97;2.03;;;;;;;11.20;84.70;101368.56;5092544;28;20032;-67
2022/11/03 00:36:18;;;;;;;10.35;1.88;;;;;;;11.15;84.83;101361.09;5092653;28;20044;-67
2022/11/03 00:38:44;;;;;;;10.98;3.13;;;;;;;11.15;84.80;101342.41;5092330;28;20040;-67
2022/11/03 00:41:11;;;;;;;11.57;2.33;;;;;;;11.18;84.97;101344.69;5091895;28;20039;-67
2022/11/03 00:43:36;;;;;;;6.85;2.40;;;;;;;11.19;84.71;101351.72;5092301;28;20107;-67
2022/11/03 00:46:04;;;;;;;8.88;1.70;;;;;;;11.18;85.02;101341.22;5092209;28;20150;-67
2022/11/03 00:48:31;;;;;;;8.23;2.20;;;;;;;11.15;84.95;101338.91;5092018;28;20035;-67
2022/11/03 00:51:12;;;;;;;8.98;2.83;;;;;;;11.18;84.92;101327.84;5092356;28;20545;-67
2022/11/03 00:53:40;;;;;;;6.55;2.25;;;;;;;11.17;84.98;101312.88;5092100;28;20039;-67
2022/11/03 00:56:09;;;;;;;11.23;3.55;;;;;;;11.17;85.08;101321.69;5091900;28;20034;-67
2022/11/03 00:58:34;;;;;;;13.23;2.42;;;;;;;11.13;85.20;101309.75;5092161;28;20433;-67
2022/11/03 01:01:03;;;;;;;9.25;3.53;;;;;;;11.17;85.18;101307.53;5092018;28;20024;-67
2022/11/03 01:03:28;;;;;;;4.95;1.65;;;;;;;11.17;85.61;101318.22;5091947;28;20028;-67
2022/11/03 01:08:38;;;;;;;11.68;2.15;;;;;;;11.16;85.24;101306.72;5111805;28;20532;-67
2022/11/03 01:13:54;;;;;;;14.52;4.28;;;;;;;11.19;85.42;101297.50;5111064;28;20038;-67
2022/11/03 01:16:21;;;;;;;8.63;2.08;;;;;;;11.18;85.53;101290.47;5110307;28;20092;-67
2022/11/03 01:18:46;;;;;;;8.60;2.50;;;;;;;11.23;85.11;101290.75;5111170;28;20031;-67
2022/11/03 01:21:12;;;;;;;8.63;2.28;;;;;;;11.21;85.38;101291.94;5111129;28;20494;-67
2022/11/03 01:23:37;;;;;;;8.38;2.60;;;;;;;11.25;85.28;101299.41;5111035;28;20042;-67
2022/11/03 01:26:07;;;;;;;4.18;2.03;;;;;;;11.25;85.12;101287.91;5111131;28;20023;-67
2022/11/03 01:28:34;;;;;;;7.03;2.85;;;;;;;11.29;85.11;101282.00;5110668;28;20028;-67
2022/11/03 01:31:11;;;;;;;9.98;2.03;;;;;;;11.32;85.07;101281.59;5110667;28;20027;-67
2022/11/03 01:33:37;;;;;;;7.40;2.50;;;;;;;11.33;84.92;101271.75;5110793;28;20102;-67
2022/11/03 01:36:03;;;;;;;12.07;2.67;;;;;;;11.33;85.07;101275.22;5110641;28;20130;-67
2022/11/03 01:38:33;;;;;;;18.15;4.45;;;;;;;11.32;85.00;101267.44;5110682;28;20039;-67
2022/11/03 01:40:59;;;;;;;10.40;2.67;;;;;;;11.31;84.72;101261.25;5110307;28;20036;-67
2022/11/03 01:43:27;;;;;;;10.07;2.03;;;;;;;11.32;85.30;101265.59;5110351;28;20023;-67
2022/11/03 01:46:00;;;;;;;9.75;2.15;;;;;;;11.32;85.12;101256.75;5110593;28;20506;-67
2022/11/03 01:48:26;;;;;;;13.98;2.22;;;;;;;11.31;85.33;101255.09;5110287;28;20375;-67
2022/11/03 01:50:52;;;;;;;11.98;2.97;;;;;;;11.32;85.46;101256.75;5109961;28;20110;-67
2022/11/03 01:53:19;;;;;;;5.57;2.60;;;;;;;11.32;85.05;101254.91;5090223;28;20123;-67
2022/11/03 01:55:45;;;;;;;8.90;2.63;;;;;;;11.31;85.60;101253.22;5090787;28;20070;-67
2022/11/03 01:58:16;;;;;;;10.60;2.22;;;;;;;11.25;85.81;101237.16;5110249;28;20040;-67
2022/11/03 02:00:44;;;;;;;13.40;4.75;;;;;;;11.26;85.66;101239.63;5110517;28;20059;-67
2022/11/03 02:03:10;;;;;;;9.80;2.40;;;;;;;11.27;85.67;101243.16;5110160;28;20043;-67
2022/11/03 02:05:37;;;;;;;11.00;1.92;;;;;;;11.22;86.07;101241.03;5110122;28;20047;-67
2022/11/03 02:08:11;;;;;;;9.57;1.92;;;;;;;11.17;86.11;101232.78;5110246;28;20355;-67
2022/11/03 02:10:37;;;;;;;11.35;2.55;;;;;;;11.19;86.44;101238.75;5110157;28;20042;-67
2022/11/03 02:13:12;;;;;;;10.85;2.50;;;;;;;11.18;86.28;101232.56;5091777;28;20020;-67
2022/11/03 02:15:38;;;;;;;6.00;1.90;;;;;;;11.14;86.45;101222.50;5109714;28;20028;-67
2022/11/03 02:18:05;;;;;;;8.55;2.28;;;;;;;11.18;86.44;101229.09;5110032;28;20015;-67
2022/11/03 02:20:32;;;;;;;7.35;2.33;;;;;;;11.18;86.82;101215.72;5109929;28;20039;-67
2022/11/03 02:23:17;;;;;;;5.10;2.05;;;;;;;11.20;86.77;101227.06;5109678;28;20505;-67
2022/11/03 02:25:42;;;;;;;10.65;3.78;;;;;;;11.22;86.87;101218.88;5109943;28;20038;-67
2022/11/03 02:28:08;;;;;;;10.02;2.70;;;;;;;11.23;86.62;101202.63;5110067;28;20047;-67
2022/11/03 02:31:07;;;;;;;12.48;2.65;;;;;;;11.28;86.40;101196.72;5109915;28;20031;-67
2022/11/03 02:33:44;;;;;;;14.07;2.90;;;;;;;11.30;86.64;101194.69;5109518;28;20027;-67
2022/11/03 02:36:32;;;;;;;8.65;1.77;;;;;;;11.28;86.63;101186.88;5109535;28;20054;-67
2022/11/03 02:39:04;;;;;;;9.02;2.15;;;;;;;11.34;86.68;101188.78;5109757;28;20134;-67
2022/11/03 02:41:31;;;;;;;;;;;;;;;11.38;85.85;101183.88;5109855;28;20055;-67
2022/11/03 02:43:57;;;;;;;12.68;2.95;;;;;;;11.40;86.86;101181.84;5109147;28;19912;-67
2022/11/03 02:46:24;;;;;;;9.27;2.83;;;;;;;11.41;86.94;101170.94;5109817;28;20387;-67
2022/11/03 02:48:51;;;;;;;10.73;2.13;;;;;;;11.44;87.00;101172.41;5109613;28;20051;-67
2022/11/03 02:51:16;;;;;;;6.82;1.67;;;;;;;11.46;86.58;101167.69;5109499;28;20041;-67
2022/11/03 02:54:01;;;;;;;14.13;4.97;;;;;;;11.43;86.76;101156.59;5109513;28;20114;-67
2022/11/03 02:56:29;;;;;;;5.53;1.50;;;;;;;11.52;86.89;101164.22;5089740;28;20028;-67
2022/11/03 02:58:57;;;;;;;15.55;2.60;;;;;;;11.55;86.76;101163.03;5089966;28;20032;-67
2022/11/03 03:01:26;;;;;;;10.70;2.28;;;;;;;11.59;86.63;101157.09;5090316;28;20024;-67
2022/11/03 03:04:02;;;;;;;10.02;4.03;;;;;;;11.59;86.59;101149.09;5089874;28;20035;-67
2022/11/03 03:06:35;;;;;;;7.43;1.70;;;;;;;11.57;86.59;101139.63;5089908;28;20032;-70
2022/11/03 03:09:06;;;;;;;6.68;1.73;;;;;;;11.52;86.77;101139.38;5089953;28;20031;-70
2022/11/03 03:11:36;;;;;;;6.82;1.88;;;;;;;11.55;87.00;101142.50;5089759;28;20016;-70
2022/11/03 03:14:16;;;;;;;13.63;2.90;;;;;;;11.53;87.47;101136.53;5089777;28;20035;-71
2022/11/03 03:16:49;;;;;;;9.13;2.90;;;;;;;11.59;87.40;101142.91;5089314;28;20027;-71
2022/11/03 03:19:28;;;;;;;13.27;3.55;;;;;;;11.59;87.43;101135.72;5089689;28;20043;-71
2022/11/03 03:21:56;;;;;;;5.22;2.38;;;;;;;11.64;87.46;101129.81;5089453;28;20487;-71
2022/11/03 03:24:35;;;;;;;6.55;3.13;;;;;;;11.62;87.33;101118.47;5089406;28;20039;-71
2022/11/03 03:27:05;;;;;;;12.05;2.97;;;;;;;11.61;87.50;101106.16;5089418;28;20704;-71
2022/11/03 03:29:38;;;;;;;6.47;2.13;;;;;;;11.69;87.00;101126.53;5071402;28;20042;-71
2022/11/03 03:32:09;;;;;;;17.50;3.63;;;;;;;11.69;87.21;101107.84;5089781;28;20031;-71
2022/11/03 03:34:38;;;;;;;9.70;2.70;;;;;;;11.72;87.06;101112.78;5089182;28;20020;-71
2022/11/03 03:37:05;;;;;;;7.15;2.28;;;;;;;11.72;87.30;101110.94;5086735;28;20050;-71
2022/11/03 03:39:35;;;;;;;4.75;1.73;;;;;;;11.74;87.50;101094.72;5091954;28;20048;-71
2022/11/03 03:42:02;;;;;;;6.72;2.50;;;;;;;11.73;87.59;101093.06;5093471;28;20023;-71
2022/11/03 03:44:28;;;;;;;16.10;3.08;;;;;;;11.75;87.27;101096.34;5093411;28;20062;-71
2022/11/03 03:47:02;;;;;;;16.05;3.05;;;;;;;11.71;87.71;101095.09;5075091;28;20038;-71
2022/11/03 03:49:27;;;;;;;8.75;2.55;;;;;;;11.69;87.23;101083.78;5093345;28;20028;-71
2022/11/03 03:51:53;;;;;;;7.00;2.40;;;;;;;11.76;87.56;101098.84;5093387;28;20039;-71
2022/11/03 03:54:18;;;;;;;8.32;2.20;;;;;;;11.75;87.37;101091.00;5093280;28;20043;-71
2022/11/03 03:57:03;;;;;;;6.47;1.98;;;;;;;11.72;87.75;101089.56;5093068;28;20055;-70
2022/11/03 03:59:29;;;;;;;9.32;3.13;;;;;;;11.72;87.75;101083.41;5093258;28;20489;-71
2022/11/03 04:01:54;;;;;;;8.63;1.85;;;;;;;11.68;87.89;101071.44;5075019;28;20102;-71
2022/11/03 04:04:20;;;;;;;6.00;2.60;;;;;;;11.69;87.63;101060.56;5093106;28;20038;-71
2022/11/03 04:06:45;;;;;;;8.32;2.10;;;;;;;11.71;87.94;101063.03;5093028;28;20020;-71
2022/11/03 04:09:10;;;;;;;7.32;2.35;;;;;;;11.68;88.24;101056.22;5112453;28;20036;-71
2022/11/03 04:22:32;;;;;;;9.32;2.00;;;;;;;11.62;88.92;101073.88;5112764;28;20390;-71
2022/11/03 04:24:58;;;;;;;4.88;1.80;;;;;;;11.59;89.05;101060.09;5092460;28;20505;-71
2022/11/03 04:27:35;;;;;;;4.75;1.75;;;;;;;11.57;89.40;101062.97;5092763;28;20031;-71
2022/11/03 04:30:23;;;;;;;10.02;2.22;;;;;;;11.56;89.38;101058.66;5074271;28;20085;-71
2022/11/03 04:32:50;;;;;;;10.27;3.67;;;;;;;11.56;89.56;101050.63;5092540;28;20051;-71
2022/11/03 04:35:24;;;;;;;8.75;3.03;;;;;;;11.57;89.76;101051.47;5074120;28;20043;-71
2022/11/03 04:38:01;;;;;;;8.40;2.30;;;;;;;11.55;90.12;101049.00;5092104;28;20093;-71
2022/11/03 04:40:26;;;;;;;7.38;2.38;;;;;;;11.57;90.05;101043.44;5092298;28;20016;-71
2022/11/03 04:42:52;;;;;;;10.05;2.53;;;;;;;11.57;90.06;101036.25;5092494;28;20367;-71
2022/11/03 04:45:32;;;;;;;6.10;3.00;;;;;;;11.58;90.41;101029.06;5074185;28;20119;-71
2022/11/03 04:48:05;;;;;;;6.35;2.17;;;;;;;11.57;90.36;101035.44;5092021;28;20021;-71
2022/11/03 04:50:30;;;;;;;10.80;2.22;;;;;;;11.55;90.86;101032.13;5090989;28;20539;-71
2022/11/03 04:52:57;;;;;;;6.68;2.55;;;;;;;11.54;90.92;101025.97;5092474;28;20040;-71
2022/11/03 04:55:23;;;;;;;7.00;1.83;;;;;;;11.52;91.39;101033.34;5092194;28;20478;-71
2022/11/03 04:57:55;;;;;;;9.57;2.00;;;;;;;11.46;91.51;101023.47;5092158;28;20063;-71
2022/11/03 05:00:21;;;;;;;;;;;;;;;11.51;90.49;101029.03;5092526;28;20542;-71
2022/11/03 05:02:49;;;;;;;6.97;2.03;;;;;;;11.49;91.56;101006.22;5092106;28;20003;-71
2022/11/03 05:05:25;;;;;;;6.07;1.90;;;;;;;11.51;91.61;101015.69;5091898;28;20035;-71
2022/11/03 05:07:53;;;;;;;11.00;3.75;;;;;;;11.51;91.92;101012.19;5095942;28;20638;-70
2022/11/03 05:10:21;;;;;;;13.05;2.50;;;;;;;11.56;92.28;101004.41;5093225;28;20378;-71
2022/11/03 05:12:47;;;;;;;7.72;1.63;;;;;;;11.55;92.45;101003.59;5111447;28;20558;-71
2022/11/03 05:15:33;;;;;;;8.55;2.78;;;;;;;11.49;92.33;100985.69;5110732;28;20031;-71
2022/11/03 05:18:00;;;;;;;13.73;3.05;;;;;;;11.56;92.48;100988.38;5110651;28;20294;-71
2022/11/03 05:20:30;;;;;;;8.60;2.50;;;;;;;11.58;92.53;100994.31;5110893;28;20070;-71
2022/11/03 05:22:56;;;;;;;11.20;3.10;;;;;;;11.56;92.64;100991.88;5111169;28;20046;-71
2022/11/03 05:25:36;;;;;;;10.43;2.83;;;;;;;11.55;93.11;100990.25;5111011;28;20537;-71
2022/11/03 05:28:02;;;;;;;12.23;2.50;;;;;;;11.56;93.18;100983.03;5111307;28;20533;-71
2022/11/03 05:30:28;;;;;;;7.97;3.38;;;;;;;11.54;93.15;100975.22;5111141;28;20028;-71
2022/11/03 05:32:53;;;;;;;11.52;3.90;;;;;;;11.55;93.27;100973.38;5110971;28;20031;-71
2022/11/03 05:35:21;;;;;;;5.82;2.00;;;;;;;11.52;93.88;100969.25;5110794;28;20077;-71
2022/11/03 05:37:48;;;;;;;9.10;2.13;;;;;;;11.55;93.93;100968.88;5109974;28;20046;-71
2022/11/03 05:40:23;;;;;;;13.15;3.65;;;;;;;11.54;93.98;100966.38;5110764;28;20433;-71
2022/11/03 05:43:01;;;;;;;11.98;3.03;;;;;;;11.53;94.14;100956.75;5110741;28;20460;-71
2022/11/03 05:45:33;;;;;;;5.07;2.30;;;;;;;11.53;94.23;100954.88;5110818;28;20027;-71
2022/11/03 05:48:02;;;;;;;6.18;2.45;;;;;;;11.49;94.26;100948.28;5110536;28;20997;-71
2022/11/03 05:50:29;;;;;;;8.00;2.53;;;;;;;11.52;94.42;100955.06;5110536;28;20055;-71
2022/11/03 05:53:07;;;;;;;10.25;3.08;;;;;;;11.48;94.45;100952.00;5110373;28;20088;-70
2022/11/03 05:55:34;;;;;;;8.60;2.85;;;;;;;11.49;94.53;100950.13;5090601;28;20031;-70
2022/11/03 05:58:39;;;;;;;7.57;2.83;;;;;;;11.49;94.20;100942.13;5090926;28;20416;-71
2022/11/03 06:01:27;;;;;;;10.05;3.90;;;;;;;11.48;94.73;100943.16;5048752;28;20066;-71
2022/11/03 06:03:52;;;;;;;8.18;2.22;;;;;;;11.37;94.92;100920.50;5090788;28;20032;-71
2022/11/03 06:06:24;;;;;;;8.48;2.00;;;;;;;11.40;94.96;100918.25;5090794;28;20161;-71
2022/11/03 06:08:50;;;;;;;;;;;;;;;11.45;93.88;100927.50;5073027;28;20438;-71
2022/11/03 06:11:24;;;;;;;12.32;3.60;;;;;;;11.41;95.04;100917.22;5090731;28;19944;-71
2022/11/03 06:13:50;;;;;;;5.88;2.47;;;;;;;11.32;95.14;100904.28;5090808;28;20027;-70
2022/11/03 06:16:34;;;;;;;10.55;3.25;;;;;;;11.38;95.62;100909.63;5090399;28;20123;-71
2022/11/03 06:19:00;;;;;;;7.05;3.50;;;;;;;11.37;95.24;100915.16;5090336;28;20028;-71
2022/11/03 06:21:26;;;;;;;9.68;3.05;;;;;;;11.36;95.65;100905.50;5071649;28;20040;-71
2022/11/03 06:23:53;;;;;;;8.73;2.17;;;;;;;11.33;95.72;100911.25;5090264;28;20105;-70
2022/11/03 06:26:22;;;;;;;11.98;3.22;;;;;;;11.24;95.93;100891.94;5090416;28;20032;-70
2022/11/03 06:28:48;;;;;;;11.27;2.72;;;;;;;11.29;96.03;100912.66;5090336;28;20497;-70
2022/11/03 06:31:26;;;;;;;8.80;3.72;;;;;;;11.28;95.78;100909.19;5090401;28;20039;-70
2022/11/03 06:33:52;;;;;;;8.98;3.50;;;;;;;11.28;96.05;100906.50;5090449;28;20028;-71
2022/11/03 06:36:20;;;;;;;10.57;3.47;;;;;;;11.29;95.94;100910.00;5090190;28;20035;-71
2022/11/03 06:39:05;;;;;;;5.30;2.28;;;;;;;11.28;96.00;100898.50;5089954;28;20044;-71
2022/11/03 06:41:35;;;;;;;8.98;3.85;;;;;;;11.27;96.37;100899.53;5090012;28;20462;-70
2022/11/03 06:44:20;;;;;;;11.13;3.33;;;;;;;11.26;96.12;100897.88;5090124;28;20032;-70
2022/11/03 06:46:46;;;;;;;11.48;2.65;;;;;;;11.28;96.39;100900.34;5089950;28;20107;-70
2022/11/03 06:49:44;;;;;;;12.98;3.28;;;;;;;11.30;95.83;100899.13;5089939;28;20132;-71
2022/11/03 06:52:21;;;;;;;7.85;1.90;;;;;;;11.31;96.36;100898.09;5033614;28;20055;-71
2022/11/03 06:54:49;;;;;;;10.02;2.85;;;;;;;11.33;96.16;100882.69;5089859;28;20959;-70
2022/11/03 06:57:17;;;;;;;10.00;1.85;;;;;;;11.34;96.16;100884.38;5089709;28;20020;-70
2022/11/03 06:59:43;;;;;;;9.85;3.30;;;;;;;11.37;96.14;100886.63;5089870;28;20024;-70
2022/11/03 07:02:52;;;;;;;6.10;2.80;;;;;;;11.40;95.75;100878.22;5089439;28;20050;-70
2022/11/03 07:05:26;;;;;;;6.80;2.22;;;;;;;11.40;96.03;100877.41;5042391;28;20055;-70
2022/11/03 07:07:58;;;;;;;15.23;2.92;;;;;;;11.40;95.82;100878.22;5071682;28;20418;-70
2022/11/03 07:10:26;;;;;;;16.40;3.00;;;;;;;11.47;95.68;100880.88;5089684;28;20035;-71
2022/11/03 07:12:52;;;;;;;10.52;2.88;;;;;;;11.44;95.76;100869.78;5089212;28;20035;-71
2022/11/03 07:15:31;;;;;;;11.18;3.20;;;;;;;11.49;95.58;100878.84;5089359;28;20120;-71
2022/11/03 07:17:57;;;;;;;7.32;2.53;;;;;;;11.50;95.47;100885.00;5089643;28;20107;-71
2022/11/03 07:20:23;;;;;;;4.93;2.60;;;;;;;11.50;95.58;100872.50;5089650;28;20043;-71
2022/11/03 07:22:51;;;;;;;20.08;3.78;;;;;;;11.52;95.70;100875.75;5089229;28;20552;-70
2022/11/03 07:25:19;;;;;;;8.07;2.20;;;;;;;11.55;95.76;100872.72;5089414;28;20039;-70
2022/11/03 07:27:47;;;;;;;8.10;2.20;;;;;;;11.60;95.14;100864.06;5089630;28;20031;-71
2022/11/03 07:30:26;;;;;;;12.35;4.18;;;;;;;11.63;95.17;100864.50;5089448;28;20062;-71
2022/11/03 07:32:53;;;;;;;10.20;2.72;;;;;;;11.67;95.07;100866.75;5071288;28;20032;-71
2022/11/03 07:35:28;;;;;;;12.50;4.25;;;;;;;11.63;94.88;100858.31;5089611;28;20036;-71
2022/11/03 07:37:54;;;;;;;13.02;3.45;;;;;;;11.68;94.58;100858.53;5089366;28;20139;-71
2022/11/03 07:40:27;;;;;;;9.20;2.63;;;;;;;11.69;95.02;100857.50;5089445;28;20119;-70
2022/11/03 07:42:58;;;;;;;8.98;2.42;;;;;;;11.69;94.40;100852.19;5089059;28;20093;-71
2022/11/03 07:45:43;;;;;;;8.82;2.83;;;;;;;11.71;94.72;100844.78;5089448;28;20020;-71
2022/11/03 07:48:33;;;;;;;9.45;3.20;;;;;;;11.70;94.51;100844.97;5089498;28;20055;-71
2022/11/03 07:51:01;;;;;;;7.28;2.70;;;;;;;11.71;94.41;100841.25;5089373;28;20074;-71
2022/11/03 07:53:32;;;;;;;10.30;3.35;;;;;;;11.71;94.23;100838.59;5089128;28;20376;-71
2022/11/03 07:55:58;;;;;;;7.47;2.83;;;;;;;11.73;94.53;100845.38;5089663;28;20045;-71
2022/11/03 07:58:37;;;;;;;8.98;3.70;;;;;;;11.75;94.34;100848.69;5089221;28;20137;-71
2022/11/03 08:01:21;;;;;;;10.63;2.83;;;;;;;11.77;94.45;100841.28;5089210;28;20093;-70
2022/11/03 08:03:47;;;;;;;11.05;3.42;;;;;;;11.80;94.00;100848.06;5089166;28;20024;-71
2022/11/03 08:06:12;;;;;;;11.75;3.97;;;;;;;11.81;94.52;100841.69;5097522;28;20049;-71
2022/11/03 08:08:38;;;;;;;14.98;4.60;;;;;;;11.83;94.09;100840.44;5108672;28;20482;-71
2022/11/03 08:11:04;;;;;;;11.18;3.88;;;;;;;11.83;94.00;100845.78;5108564;28;20039;-71
2022/11/03 08:13:30;;;;;;;8.70;2.80;;;;;;;11.90;93.86;100842.34;5108143;28;20031;-67
2022/11/03 08:15:55;;;;;;;8.48;2.45;;;;;;;11.91;93.93;100835.97;5108641;28;20032;-68
2022/11/03 08:18:21;;;;;;;8.63;2.30;;;;;;;11.97;93.35;100824.44;5089971;28;20028;-67
2022/11/03 08:20:46;;;;;;;9.15;1.73;;;;;;;12.03;92.63;100832.47;5108383;28;20114;-67
2022/11/03 08:23:11;;;;;;;12.00;2.30;;;;;;;12.07;92.10;100823.00;5108289;28;20067;-67
2022/11/03 08:25:37;;;;;;;7.28;2.80;;;;;;;12.12;91.74;100810.88;5109877;28;20088;-67
2022/11/03 08:28:03;;;;;;;7.85;2.30;;;;;;;12.14;91.84;100809.63;5112313;28;20073;-67
2022/11/03 08:30:29;;;;;;;9.85;1.98;;;;;;;12.18;91.53;100808.19;5112175;28;20089;-68
2022/11/03 08:32:54;;;;;;;6.18;2.67;;;;;;;12.21;91.48;100793.59;5112031;28;20660;-67
2022/11/03 08:35:20;;;;;;;5.25;3.17;;;;;;;12.25;90.88;100792.94;5106972;28;20031;-66
2022/11/03 08:37:45;;;;;;;8.52;3.13;;;;;;;12.29;90.51;100788.03;5070519;28;20048;-66
2022/11/03 08:40:11;;;;;;;10.02;2.78;;;;;;;12.33;90.38;100778.53;5099689;28;20116;-67
2022/11/03 08:42:36;;;;;;;10.98;3.45;;;;;;;12.39;89.89;100774.19;5098757;28;20093;-67
2022/11/03 08:45:02;;;;;;;3.97;1.88;;;;;;;12.43;90.27;100767.41;5099343;28;20098;-67
2022/11/03 08:47:27;;;;;;;12.50;3.03;;;;;;;12.46;89.71;100754.41;5099601;28;20020;-68
2022/11/03 08:49:52;;;;;;;9.43;2.45;;;;;;;12.44;89.78;100743.13;5099260;28;20027;-68
2022/11/03 08:52:18;;;;;;;9.20;3.83;;;;;;;12.56;89.28;100748.63;5098880;28;20039;-66
2022/11/03 08:54:44;;;;;;;7.05;3.22;;;;;;;12.60;88.95;100741.84;5100808;28;20182;-67
2022/11/03 08:57:09;;;;;;;9.85;3.05;;;;;;;12.64;87.97;100724.28;5111458;28;20521;-67
2022/11/03 08:59:34;;;;;;;7.57;1.95;;;;;;;12.68;87.99;100717.50;5111540;28;20050;-68
2022/11/03 09:01:59;;;;;;;11.75;2.83;;;;;;;12.77;87.69;100711.91;5093158;28;20378;-67
2022/11/03 09:04:25;;;;;;;8.63;2.40;;;;;;;12.80;87.52;100706.91;5111377;28;20363;-67
2022/11/03 09:06:50;;;;;;;12.80;2.88;;;;;;;12.88;87.30;100714.69;5093204;28;20050;-67
2022/11/03 09:09:15;;;;;;;5.97;3.08;;;;;;;12.92;86.72;100701.72;5111364;28;20039;-67
2022/11/03 09:11:41;;;;;;;8.98;3.53;;;;;;;13.00;86.36;100692.59;5111420;28;20024;-67
2022/11/03 09:14:06;;;;;;;6.80;2.90;;;;;;;13.04;85.86;100688.44;5111233;28;20092;-67
2022/11/03 09:16:32;;;;;;;7.57;2.15;;;;;;;13.08;85.43;100676.28;5111064;28;20092;-67
2022/11/03 09:18:57;;;;;;;13.63;3.65;;;;;;;13.10;85.49;100660.81;5111013;28;20420;-67
2022/11/03 09:21:22;;;;;;;10.40;2.83;;;;;;;13.16;85.60;100649.22;5111117;28;20035;-68
2022/11/03 09:23:48;;;;;;;9.50;3.42;;;;;;;13.20;85.54;100654.97;5111002;28;20036;-68
2022/11/03 09:26:13;;;;;;;13.13;3.28;;;;;;;13.15;84.29;100634.19;5110845;28;20038;-67
2022/11/03 09:28:38;;;;;;;5.63;2.10;;;;;;;13.27;83.57;100639.69;5110911;28;20039;-67
2022/11/03 09:31:04;;;;;;;9.13;2.20;;;;;;;13.29;84.30;100632.25;5110788;28;20537;-67
2022/11/03 09:33:29;;;;;;;8.55;3.15;;;;;;;13.31;84.32;100627.50;5110749;28;20404;-67
2022/11/03 09:35:55;;;;;;;8.63;2.10;;;;;;;13.32;84.03;100611.19;5110466;28;20039;-67
2022/11/03 09:38:20;;;;;;;13.07;2.85;;;;;;;13.38;83.56;100610.31;5110032;28;20641;-67
2022/11/03 09:40:46;;;;;;;10.68;2.10;;;;;;;13.42;84.18;100607.22;5110624;28;20470;-67
2022/11/03 09:43:11;;;;;;;14.40;3.35;;;;;;;13.44;82.93;100600.59;5101155;28;20020;-66
2022/11/03 09:45:39;;;;;;;7.32;2.17;;;;;;;13.42;83.16;100591.94;5098379;28;20054;-68
2022/11/03 09:48:09;;;;;;;8.10;2.80;;;;;;;13.41;82.73;100581.44;5096620;28;20020;-67
2022/11/03 09:50:35;;;;;;;8.00;2.70;;;;;;;13.52;82.36;100597.63;5098753;28;20107;-67
2022/11/03 09:53:00;;;;;;;8.60;2.80;;;;;;;13.54;83.13;100597.38;5107300;28;20026;-67
2022/11/03 09:55:26;;;;;;;8.82;2.53;;;;;;;13.55;82.24;100597.16;5109773;28;20035;-67
2022/11/03 09:57:55;;;;;;;9.65;2.90;;;;;;;13.57;81.93;100591.56;5109948;28;20418;-67
2022/11/03 10:00:22;;;;;;;9.30;2.50;;;;;;;13.58;82.05;100585.19;5110253;28;20031;-67
2022/11/03 10:02:49;;;;;;;10.93;3.53;;;;;;;13.58;82.27;100579.81;5110339;28;20493;-67
2022/11/03 10:05:25;;;;;;;3.97;2.28;;;;;;;13.59;82.33;100574.22;5110439;28;20084;-67
2022/11/03 10:08:00;;;;;;;7.10;1.88;;;;;;;13.55;82.07;100566.88;5110175;28;20464;-67
2022/11/03 10:10:26;;;;;;;6.32;2.65;;;;;;;13.58;82.30;100569.91;5110243;28;20371;-67
2022/11/03 10:12:52;;;;;;;14.55;2.20;;;;;;;13.58;81.76;100561.06;5110316;28;20019;-67
2022/11/03 10:15:20;;;;;;;6.13;2.42;;;;;;;13.56;81.79;100553.25;5110159;28;20058;-67
2022/11/03 10:17:49;;;;;;;8.60;3.22;;;;;;;13.51;81.08;100539.69;5110071;28;20024;-67
2022/11/03 10:20:17;;;;;;;8.80;2.28;;;;;;;13.52;81.00;100536.00;5110106;28;20481;-67
2022/11/03 10:22:44;;;;;;;7.88;2.83;;;;;;;13.55;81.37;100534.72;5092072;28;20048;-66
2022/11/03 10:25:34;;;;;;;5.95;2.15;;;;;;;13.55;81.43;100527.50;5090222;28;20032;-66
2022/11/03 10:28:12;;;;;;;6.97;2.15;;;;;;;13.54;80.91;100523.16;5090129;28;20031;-66
2022/11/03 10:30:59;;;;;;;13.35;2.83;;;;;;;13.53;80.47;100518.88;5089991;28;20138;-67
2022/11/03 10:33:24;;;;;;;8.57;3.92;;;;;;;13.52;81.00;100511.88;5090027;28;21000;-66
2022/11/03 10:35:49;;;;;;;7.18;2.30;;;;;;;13.47;80.11;100509.06;5090166;28;20024;-66
2022/11/03 10:38:29;;;;;;;9.88;2.53;;;;;;;13.54;81.39;100517.00;5090051;28;20056;-66
2022/11/03 10:41:09;;;;;;;6.95;2.10;;;;;;;13.49;80.11;100509.66;5090018;28;20051;-66
2022/11/03 10:43:35;;;;;;;14.43;3.25;;;;;;;13.50;80.32;100492.53;5071849;28;20105;-66
2022/11/03 10:46:24;;;;;;;9.82;2.20;;;;;;;13.54;80.80;100485.66;5090129;28;20031;-66
2022/11/03 10:49:13;;;;;;;5.10;2.00;;;;;;;13.54;80.62;100488.34;5088860;28;20032;-66
2022/11/03 10:51:40;;;;;;;7.30;2.70;;;;;;;13.55;79.81;100475.78;5089794;28;20028;-66
2022/11/03 10:54:11;;;;;;;5.63;2.35;;;;;;;13.62;80.57;100475.69;5089947;28;20024;-66
2022/11/03 10:56:37;;;;;;;9.57;2.58;;;;;;;13.69;80.09;100481.78;5089792;28;20379;-66
2022/11/03 10:59:02;;;;;;;3.97;1.77;;;;;;;13.75;79.54;100470.16;5089340;28;20039;-66
2022/11/03 11:01:28;;;;;;;12.18;3.15;;;;;;;13.85;78.77;100481.16;5089868;28;20039;-67
2022/11/03 11:03:54;;;;;;;8.18;2.10;;;;;;;13.90;79.13;100473.25;5089722;28;20032;-66
2022/11/03 11:06:20;;;;;;;10.75;3.13;;;;;;;14.01;78.52;100475.13;5089870;28;20036;-66
2022/11/03 11:08:46;;;;;;;5.10;2.38;;;;;;;14.09;78.10;100473.19;5089957;28;20032;-66
2022/11/03 11:11:15;;;;;;;4.97;1.98;;;;;;;14.17;78.34;100464.81;5089899;28;20450;-66
2022/11/03 11:13:41;;;;;;;12.43;3.20;;;;;;;14.20;77.40;100453.59;5089864;28;20455;-66
2022/11/03 11:16:55;;;;;;;12.40;3.25;;;;;;;14.28;77.05;100452.47;5089719;28;20107;-67
2022/11/03 11:19:23;;;;;;;6.65;2.15;;;;;;;14.25;75.77;100457.25;5075945;28;20441;-66
2022/11/03 11:21:57;;;;;;;8.18;2.42;;;;;;;14.33;76.16;100453.41;5089553;28;20898;-66
2022/11/03 11:24:44;;;;;;;8.07;2.10;;;;;;;14.44;76.53;100452.63;5089582;28;20024;-67
2022/11/03 11:27:31;;;;;;;6.68;2.10;;;;;;;14.50;75.00;100450.88;5089458;28;20038;-66
2022/11/03 11:30:00;;;;;;;5.78;2.58;;;;;;;14.48;75.44;100437.66;5089241;28;20012;-66
2022/11/03 11:32:38;;;;;;;13.30;3.35;;;;;;;14.52;74.44;100439.91;5089258;28;20410;-66
2022/11/03 11:35:05;;;;;;;3.95;1.92;;;;;;;14.45;74.38;100432.78;5089400;28;20039;-66
2022/11/03 11:37:33;;;;;;;4.72;2.33;;;;;;;14.51;74.43;100416.78;5089119;28;20486;-66
2022/11/03 11:39:58;;;;;;;6.55;2.88;;;;;;;14.51;73.62;100409.53;5089286;28;20509;-66
2022/11/03 11:42:23;;;;;;;9.57;2.35;;;;;;;14.51;74.43;100403.38;5095752;28;20023;-66
2022/11/03 11:44:57;;;;;;;4.75;2.05;;;;;;;14.56;75.35;100398.16;5108959;28;20458;-66
2022/11/03 11:47:22;;;;;;;4.93;1.90;;;;;;;14.60;73.67;100400.13;5089061;28;20020;-66
2022/11/03 11:49:58;;;;;;;7.83;2.93;;;;;;;14.66;72.55;100387.66;5107096;28;20084;-66
2022/11/03 11:52:24;;;;;;;14.63;2.88;;;;;;;14.69;73.94;100373.75;5089059;28;20325;-66